createdAt,value
2024-01-29T00:05:04.043Z,33.30
2024-01-29T00:10:33.326Z,32.60
2024-01-29T00:15:36.605Z,31.80
2024-01-29T00:20:39.618Z,33.20
2024-01-29T00:25:42.860Z,23.30
2024-01-29T00:30:45.839Z,29.40
2024-01-29T00:35:49.326Z,25.90
2024-01-29T00:40:52.335Z,28.70
2024-01-29T00:45:55.412Z,33.30
2024-01-29T00:51:04.347Z,26.20
2024-01-29T00:56:08.170Z,24.50
2024-01-29T01:01:12.679Z,27.30
2024-01-29T01:06:15.788Z,26.70
2024-01-29T01:11:18.696Z,27.20
2024-01-29T01:16:21.618Z,30.80
2024-01-29T01:21:24.593Z,32.20
2024-01-29T01:26:27.485Z,27.10
2024-01-29T01:31:46.907Z,27.50
2024-01-29T01:37:06.411Z,26.50
2024-01-29T01:42:19.050Z,28.10
2024-01-29T01:47:22.103Z,21.00
2024-01-29T01:52:25.510Z,28.10
2024-01-29T01:58:19.683Z,26.40
2024-01-29T02:03:22.705Z,23.50
2024-01-29T02:08:25.989Z,25.10
2024-01-29T02:13:29.018Z,23.80
2024-01-29T02:18:32.041Z,25.80
2024-01-29T02:23:35.035Z,27.00
2024-01-29T02:28:38.081Z,26.60
2024-01-29T02:33:41.060Z,28.40
2024-01-29T02:38:44.178Z,23.40
2024-01-29T02:43:47.171Z,23.90
2024-01-29T02:48:50.238Z,17.60
2024-01-29T02:53:53.196Z,31.90
2024-01-29T02:58:56.154Z,41.40
2024-01-29T03:03:59.214Z,33.30
2024-01-29T03:09:02.204Z,22.50
2024-01-29T03:14:05.274Z,20.40
2024-01-29T03:19:08.848Z,24.20
2024-01-29T03:24:12.082Z,22.50
2024-01-29T03:29:15.075Z,20.70
2024-01-29T03:34:18.199Z,26.60
2024-01-29T03:39:21.172Z,31.20
2024-01-29T03:44:24.058Z,33.90
2024-01-29T03:49:27.096Z,31.10
2024-01-29T03:54:30.092Z,29.90
2024-01-29T03:59:36.271Z,27.40
2024-01-29T04:04:39.561Z,24.60
2024-01-29T04:09:42.621Z,29.20
2024-01-29T04:14:45.658Z,35.00
2024-01-29T04:19:48.624Z,32.70
2024-01-29T04:24:51.540Z,30.20
2024-01-29T04:29:54.600Z,34.80
2024-01-29T04:34:57.682Z,33.00
2024-01-29T04:40:00.784Z,41.30
2024-01-29T04:45:04.718Z,35.70
2024-01-29T04:50:08.234Z,41.20
2024-01-29T04:55:11.267Z,39.70
2024-01-29T05:00:14.296Z,42.70
2024-01-29T05:05:17.419Z,31.60
2024-01-29T05:10:21.452Z,34.60
2024-01-29T05:15:24.415Z,36.80
2024-01-29T05:20:27.509Z,39.20
2024-01-29T05:25:30.814Z,35.10
2024-01-29T05:30:33.867Z,33.70
2024-01-29T05:35:36.855Z,33.50
2024-01-29T05:40:39.876Z,37.00
2024-01-29T05:45:43.392Z,35.10
2024-01-29T05:50:46.594Z,39.50
2024-01-29T05:55:49.529Z,38.60
2024-01-29T06:00:52.511Z,40.70
2024-01-29T06:05:56.614Z,42.00
2024-01-29T06:10:59.577Z,51.00
2024-01-29T06:16:03.388Z,47.30
2024-01-29T06:21:06.390Z,60.40
2024-01-29T06:26:10.616Z,51.80
2024-01-29T06:31:14.556Z,46.50
2024-01-29T06:36:17.692Z,45.40
2024-01-29T06:41:26.061Z,53.80
2024-01-29T06:46:29.142Z,60.40
2024-01-29T06:51:32.113Z,44.10
2024-01-29T06:56:35.040Z,59.10
2024-01-29T07:01:38.951Z,60.30
2024-01-29T07:06:42.138Z,73.80
2024-01-29T07:11:45.514Z,80.60
2024-01-29T07:16:48.610Z,93.20
2024-01-29T07:21:52.184Z,100.80
2024-01-29T07:26:55.221Z,91.60
2024-01-29T07:31:58.529Z,104.70
2024-01-29T07:37:01.732Z,89.40
2024-01-29T07:42:05.014Z,99.20
2024-01-29T07:47:08.435Z,88.60
2024-01-29T07:52:13.116Z,111.30
2024-01-29T07:57:16.278Z,116.20
2024-01-29T08:02:22.198Z,106.50
2024-01-29T08:07:25.501Z,114.30
2024-01-29T08:12:29.101Z,99.30
2024-01-29T08:17:35.437Z,103.40
2024-01-29T08:22:39.983Z,113.90
2024-01-29T08:27:42.992Z,128.00
2024-01-29T08:32:46.325Z,117.40
2024-01-29T08:37:51.306Z,105.90
2024-01-29T08:42:55.502Z,131.90
2024-01-29T08:48:00.065Z,163.70
2024-01-29T08:53:26.744Z,145.50
2024-01-29T08:58:35.960Z,114.40
2024-01-29T09:03:53.619Z,132.60
2024-01-29T09:08:56.653Z,125.20
2024-01-29T09:14:01.089Z,124.10
2024-01-29T09:19:04.229Z,128.60
2024-01-29T09:24:07.446Z,117.00
2024-01-29T09:29:10.505Z,109.90
2024-01-29T09:34:14.297Z,112.00
2024-01-29T09:39:19.548Z,101.70
2024-01-29T09:44:23.766Z,106.90
2024-01-29T09:49:32.738Z,94.30
2024-01-29T09:54:43.154Z,90.10
2024-01-29T09:59:46.940Z,82.60
2024-01-29T10:04:51.311Z,86.20
2024-01-29T10:09:55.858Z,77.20
2024-01-29T10:20:40.673Z,69.10
2024-01-29T10:26:08.280Z,78.20
2024-01-29T10:31:26.010Z,91.00
2024-01-29T10:36:33.090Z,99.60
2024-01-29T10:41:38.475Z,103.90
2024-01-29T10:46:47.320Z,105.50
2024-01-29T10:51:55.056Z,89.50
2024-01-29T10:57:00.256Z,74.20
2024-01-29T11:02:06.420Z,84.90
2024-01-29T11:07:27.117Z,85.70
2024-01-29T11:12:31.794Z,92.80
2024-01-29T11:17:34.979Z,94.20
2024-01-29T11:22:40.317Z,96.60
2024-01-29T11:27:51.287Z,104.40
2024-01-29T11:32:57.427Z,87.30
2024-01-29T11:38:09.608Z,98.80
2024-01-29T11:43:23.643Z,89.30
2024-01-29T11:48:28.946Z,89.10
2024-01-29T11:53:32.521Z,100.60
2024-01-29T11:58:36.615Z,109.60
2024-01-29T12:03:39.895Z,87.60
2024-01-29T12:08:50.776Z,103.70
2024-01-29T12:13:57.379Z,99.70
2024-01-29T12:19:01.127Z,104.10
2024-01-29T12:24:04.639Z,105.00
2024-01-29T12:29:09.825Z,110.70
2024-01-29T12:34:21.941Z,95.90
2024-01-29T12:39:28.050Z,106.80
2024-01-29T12:44:31.125Z,114.90
2024-01-29T12:49:34.406Z,97.70
2024-01-29T12:54:38.137Z,94.50
2024-01-29T12:59:41.230Z,101.80
2024-01-29T13:04:44.492Z,118.20
2024-01-29T13:09:47.645Z,127.70
2024-01-29T13:14:50.885Z,111.10
2024-01-29T13:19:54.245Z,131.10
2024-01-29T13:25:01.132Z,94.00
2024-01-29T13:30:05.188Z,98.70
2024-01-29T13:35:09.504Z,105.70
2024-01-29T13:40:12.873Z,140.70
2024-01-29T13:45:16.399Z,118.90
2024-01-29T13:50:22.780Z,103.20
2024-01-29T13:55:28.349Z,114.50
2024-01-29T14:00:31.504Z,134.00
2024-01-29T14:05:35.051Z,132.00
2024-01-29T14:10:38.116Z,159.60
2024-01-29T14:15:42.007Z,162.00
2024-01-29T14:20:45.308Z,216.20
2024-01-29T14:25:48.785Z,251.10
2024-01-29T14:30:52.089Z,245.60
2024-01-29T14:35:57.948Z,191.30
2024-01-29T14:41:01.009Z,156.80
2024-01-29T14:46:04.361Z,150.20
2024-01-29T14:51:08.078Z,148.40
2024-01-29T14:56:11.233Z,138.70
2024-01-29T15:01:14.324Z,124.40
2024-01-29T15:06:22.500Z,129.20
2024-01-29T15:11:28.297Z,157.10
2024-01-29T15:16:31.472Z,121.00
2024-01-29T15:21:35.094Z,106.20
2024-01-29T15:26:38.460Z,113.20
2024-01-29T15:31:49.025Z,134.90
2024-01-29T16:08:13.616Z,123.90
2024-01-29T17:02:37.646Z,93.50
2024-01-29T17:08:45.455Z,153.90
2024-01-29T17:14:43.486Z,83.30
2024-01-29T17:43:40.456Z,153.90
2024-01-29T17:48:42.776Z,111.00
2024-01-29T17:53:45.194Z,127.20
2024-01-29T17:58:46.900Z,170.50
2024-01-29T18:03:52.066Z,203.50
2024-01-29T18:08:54.509Z,159.80
2024-01-29T18:13:56.352Z,182.10
2024-01-29T18:18:58.523Z,203.00
2024-01-29T18:24:01.376Z,142.60
2024-01-29T18:29:03.150Z,155.60
2024-01-29T18:34:05.133Z,186.90
2024-01-29T18:39:07.203Z,239.70
2024-01-29T18:44:09.007Z,247.80
2024-01-29T18:49:10.836Z,196.90
2024-01-29T18:54:12.984Z,168.50
2024-01-29T18:59:14.541Z,153.30
2024-01-29T19:04:16.284Z,145.90
2024-01-29T19:09:18.961Z,151.60
2024-01-29T19:14:23.177Z,190.10
2024-01-29T19:19:25.422Z,123.80
2024-01-29T19:24:27.297Z,253.30
2024-01-29T19:29:30.801Z,258.00
2024-01-29T19:34:38.397Z,220.50
2024-01-29T19:39:40.593Z,151.20
2024-01-29T19:44:42.786Z,133.90
2024-01-29T19:49:48.308Z,129.70
2024-01-29T19:54:50.152Z,98.20
2024-01-29T19:59:51.762Z,96.50
2024-01-29T20:04:55.406Z,106.40
2024-01-29T20:09:57.022Z,125.60
2024-01-29T20:14:58.970Z,84.80
2024-01-29T20:20:00.794Z,75.00
2024-01-29T20:25:03.583Z,84.10
2024-01-29T20:30:06.389Z,104.50
2024-01-29T20:35:11.148Z,93.50
2024-01-29T20:40:13.138Z,95.20
2024-01-29T20:45:15.665Z,97.20
2024-01-29T20:50:17.297Z,79.90
2024-01-29T20:55:20.633Z,97.70
2024-01-29T21:00:22.559Z,161.30
2024-01-29T21:05:24.258Z,113.40
2024-01-29T21:10:27.725Z,122.90
2024-01-29T21:15:32.679Z,139.70
2024-01-29T21:20:34.569Z,136.90
2024-01-29T21:25:36.295Z,125.10
2024-01-29T21:30:37.972Z,171.30
2024-01-29T21:35:40.501Z,134.70
2024-01-29T21:40:42.500Z,517.80
2024-01-29T21:45:45.039Z,197.60
2024-01-29T21:50:46.829Z,178.80
2024-01-29T21:55:48.718Z,128.90
2024-01-29T22:00:50.515Z,222.40
2024-01-29T22:05:52.171Z,151.10
2024-01-29T22:10:54.378Z,120.30
2024-01-29T22:15:58.777Z,137.70
2024-01-29T22:21:02.822Z,124.00
2024-01-29T22:26:04.722Z,120.80
2024-01-29T22:31:07.031Z,95.60
2024-01-29T22:36:15.634Z,107.40
2024-01-29T22:41:17.693Z,104.20
2024-01-29T22:46:19.371Z,153.90
2024-01-29T22:51:29.564Z,111.20
2024-01-29T22:56:31.765Z,96.40
2024-01-29T23:01:33.579Z,101.90
2024-01-29T23:06:35.211Z,131.40
2024-01-29T23:11:36.842Z,112.80
2024-01-29T23:16:39.985Z,130.80
2024-01-29T23:21:42.268Z,104.40
2024-01-29T23:26:44.249Z,141.20
2024-01-29T23:31:45.781Z,270.90
2024-01-29T23:36:47.345Z,225.00
2024-01-29T23:41:48.915Z,128.50
2024-01-29T23:46:50.400Z,87.60
2024-01-29T23:51:51.952Z,82.70
2024-01-29T23:56:53.447Z,103.40
